createdAt,value
2022-10-23T00:01:12.327Z,13.95
2022-10-23T00:03:39.116Z,13.35
2022-10-23T00:06:06.137Z,13.18
2022-10-23T00:08:32.671Z,13.27
2022-10-23T00:10:59.394Z,13.60
2022-10-23T00:13:25.966Z,13.82
2022-10-23T00:18:23.856Z,13.93
2022-10-23T00:20:50.387Z,13.43
2022-10-23T00:23:17.629Z,13.17
2022-10-23T00:25:44.153Z,13.70
2022-10-23T00:28:10.984Z,14.33
2022-10-23T00:30:37.481Z,14.18
2022-10-23T00:33:03.987Z,14.33
2022-10-23T00:35:30.497Z,14.53
2022-10-23T00:37:57.034Z,15.27
2022-10-23T00:40:23.658Z,13.87
2022-10-23T00:42:50.173Z,14.07
2022-10-23T00:45:26.974Z,13.87
2022-10-23T00:47:54.870Z,12.68
2022-10-23T00:50:24.192Z,13.55
2022-10-23T00:52:52.915Z,13.30
2022-10-23T00:55:21.372Z,13.35
2022-10-23T00:57:49.831Z,13.77
2022-10-23T01:00:29.356Z,13.75
2022-10-23T01:02:57.459Z,13.65
2022-10-23T01:05:44.801Z,14.50
2022-10-23T01:08:23.115Z,15.23
2022-10-23T01:10:58.619Z,15.65
2022-10-23T01:13:34.405Z,15.70
2022-10-23T01:16:17.385Z,14.07
2022-10-23T01:19:21.291Z,13.23
2022-10-23T01:22:13.349Z,13.93
2022-10-23T01:24:59.539Z,15.45
2022-10-23T01:27:48.347Z,15.83
2022-10-23T01:30:17.091Z,14.45
2022-10-23T01:32:56.647Z,13.43
2022-10-23T01:35:29.143Z,14.30
2022-10-23T01:38:07.670Z,14.10
2022-10-23T01:40:42.638Z,14.15
2022-10-23T01:43:16.875Z,14.98
2022-10-23T01:45:47.724Z,16.23
2022-10-23T01:48:18.062Z,14.70
2022-10-23T01:50:46.551Z,14.75
2022-10-23T01:53:13.144Z,14.90
2022-10-23T01:58:16.043Z,15.10
2022-10-23T02:00:45.633Z,13.90
2022-10-23T02:03:15.600Z,13.73
2022-10-23T02:05:44.128Z,14.25
2022-10-23T02:08:11.075Z,15.57
2022-10-23T02:10:49.347Z,15.85
2022-10-23T02:13:46.436Z,15.95
2022-10-23T02:16:20.376Z,16.70
2022-10-23T02:18:59.232Z,16.40
2022-10-23T02:22:04.228Z,16.77
2022-10-23T02:24:43.579Z,16.92
2022-10-23T02:27:18.178Z,15.55
2022-10-23T02:29:51.168Z,15.70
2022-10-23T02:32:20.691Z,15.77
2022-10-23T02:34:47.985Z,15.80
2022-10-23T02:37:15.246Z,16.15
2022-10-23T02:39:42.079Z,15.90
2022-10-23T02:42:17.359Z,16.58
2022-10-23T02:44:50.107Z,17.15
2022-10-23T02:47:40.991Z,16.88
2022-10-23T02:50:07.662Z,16.92
2022-10-23T02:52:41.951Z,16.87
2022-10-23T02:55:16.615Z,16.95
2022-10-23T02:57:55.983Z,17.35
2022-10-23T03:00:23.296Z,19.08
2022-10-23T03:03:03.267Z,19.00
2022-10-23T03:05:36.228Z,19.98
2022-10-23T03:08:05.314Z,19.02
2022-10-23T03:10:32.070Z,19.63
2022-10-23T03:12:58.935Z,18.98
2022-10-23T03:15:25.526Z,19.00
2022-10-23T03:17:52.115Z,21.60
2022-10-23T03:20:19.127Z,20.27
2022-10-23T03:22:46.044Z,19.80
2022-10-23T03:25:12.793Z,19.60
2022-10-23T03:27:39.314Z,20.33
2022-10-23T03:30:07.291Z,20.13
2022-10-23T03:32:34.020Z,18.50
2022-10-23T03:35:00.651Z,20.05
2022-10-23T03:37:27.188Z,19.77
2022-10-23T03:39:53.683Z,19.60
2022-10-23T03:42:20.227Z,18.90
2022-10-23T03:44:46.754Z,20.30
2022-10-23T03:47:13.345Z,19.60
2022-10-23T03:49:40.262Z,17.83
2022-10-23T03:52:07.933Z,18.33
2022-10-23T03:54:35.024Z,18.83
2022-10-23T03:57:01.848Z,18.48
2022-10-23T03:59:28.447Z,18.38
2022-10-23T04:01:55.363Z,18.13
2022-10-23T04:04:22.156Z,17.83
2022-10-23T04:06:48.698Z,17.92
2022-10-23T04:09:15.752Z,17.00
2022-10-23T04:11:42.240Z,18.13
2022-10-23T04:14:12.335Z,17.67
2022-10-23T04:16:39.152Z,17.70
2022-10-23T04:19:05.764Z,17.63
2022-10-23T04:21:32.336Z,17.55
2022-10-23T04:23:58.852Z,17.23
2022-10-23T04:26:25.372Z,17.67
2022-10-23T04:28:51.967Z,18.97
2022-10-23T04:31:19.661Z,18.80
2022-10-23T04:33:46.276Z,19.35
2022-10-23T04:36:12.885Z,18.90
2022-10-23T04:38:39.415Z,18.00
2022-10-23T04:41:06.257Z,17.57
2022-10-23T04:43:32.766Z,18.33
2022-10-23T04:45:59.402Z,20.37
2022-10-23T04:48:28.458Z,19.58
2022-10-23T04:50:57.595Z,19.33
2022-10-23T04:53:25.004Z,19.80
2022-10-23T04:58:19.032Z,20.58
2022-10-23T05:00:46.550Z,21.02
2022-10-23T05:03:13.519Z,25.88
2022-10-23T05:05:40.800Z,23.45
2022-10-23T05:08:07.668Z,30.02
2022-10-23T05:10:34.437Z,24.67
2022-10-23T05:13:01.419Z,31.45
2022-10-23T05:15:27.974Z,29.02
2022-10-23T05:17:59.915Z,30.17
2022-10-23T05:20:31.795Z,30.42
2022-10-23T05:23:00.554Z,24.60
2022-10-23T05:25:27.130Z,22.83
2022-10-23T05:27:53.672Z,22.60
2022-10-23T05:30:20.238Z,19.53
2022-10-23T05:32:46.995Z,22.60
2022-10-23T05:35:19.234Z,24.10
2022-10-23T05:37:47.919Z,24.80
2022-10-23T05:40:14.575Z,25.77
2022-10-23T05:42:41.815Z,23.00
2022-10-23T05:45:09.307Z,22.83
2022-10-23T05:50:02.327Z,21.35
2022-10-23T05:52:28.928Z,20.97
2022-10-23T05:54:55.520Z,21.23
2022-10-23T05:57:22.113Z,20.80
2022-10-23T05:59:48.621Z,32.83
2022-10-23T06:02:15.171Z,31.10
2022-10-23T06:04:41.725Z,29.57
2022-10-23T06:07:08.268Z,24.63
2022-10-23T06:09:34.822Z,23.43
2022-10-23T06:12:02.744Z,19.67
2022-10-23T06:14:29.286Z,18.38
2022-10-23T06:16:55.871Z,17.37
2022-10-23T06:19:22.472Z,17.77
2022-10-23T06:21:49.000Z,18.80
2022-10-23T06:24:15.560Z,18.17
2022-10-23T06:26:42.064Z,18.00
2022-10-23T06:29:08.631Z,23.60
2022-10-23T06:31:35.190Z,14.55
2022-10-23T06:34:01.746Z,18.70
2022-10-23T06:36:28.415Z,18.03
2022-10-23T06:38:56.461Z,16.67
2022-10-23T06:41:23.393Z,17.38
2022-10-23T06:43:51.521Z,17.10
2022-10-23T06:46:19.228Z,21.27
2022-10-23T06:48:45.830Z,21.70
2022-10-23T06:51:14.142Z,17.60
2022-10-23T06:53:41.430Z,16.60
2022-10-23T06:56:09.139Z,18.20
2022-10-23T06:58:37.404Z,17.65
2022-10-23T07:01:07.075Z,31.65
2022-10-23T07:03:34.881Z,35.20
2022-10-23T07:06:06.878Z,24.17
2022-10-23T07:08:33.774Z,15.23
2022-10-23T07:11:08.849Z,14.52
2022-10-23T07:13:36.965Z,15.10
2022-10-23T07:16:18.217Z,14.95
2022-10-23T07:18:46.288Z,16.33
2022-10-23T07:21:12.936Z,16.85
2022-10-23T07:23:39.586Z,19.42
2022-10-23T07:26:14.292Z,18.23
2022-10-23T07:28:41.642Z,18.60
2022-10-23T07:33:34.850Z,15.15
2022-10-23T07:36:03.658Z,15.50
2022-10-23T07:38:30.195Z,15.13
2022-10-23T07:40:59.204Z,15.27
2022-10-23T07:43:26.267Z,19.13
2022-10-23T07:45:54.142Z,20.02
2022-10-23T07:48:21.820Z,22.42
2022-10-23T07:50:48.340Z,16.58
2022-10-23T07:53:18.669Z,17.60
2022-10-23T07:55:54.039Z,12.30
2022-10-23T07:58:21.024Z,11.88
2022-10-23T08:00:58.924Z,10.98
2022-10-23T08:03:27.337Z,10.90
2022-10-23T08:05:54.887Z,11.30
2022-10-23T08:08:22.730Z,10.93
2022-10-23T08:10:50.788Z,11.27
2022-10-23T08:13:20.324Z,10.82
2022-10-23T08:15:48.393Z,10.88
2022-10-23T08:18:15.446Z,10.90
2022-10-23T08:23:12.330Z,10.57
2022-10-23T08:25:40.328Z,10.45
2022-10-23T08:28:08.030Z,11.63
2022-10-23T08:30:35.157Z,11.32
2022-10-23T08:33:06.500Z,11.98
2022-10-23T08:35:37.756Z,9.63
2022-10-23T08:38:05.588Z,8.75
2022-10-23T08:40:32.873Z,8.50
2022-10-23T08:43:19.051Z,8.00
2022-10-23T08:45:47.827Z,7.03
2022-10-23T08:48:30.220Z,7.28
2022-10-23T08:51:05.401Z,7.38
2022-10-23T08:53:36.579Z,7.50
2022-10-23T08:56:09.391Z,7.57
2022-10-23T08:58:35.896Z,5.80
2022-10-23T09:01:18.393Z,6.15
2022-10-23T09:03:45.075Z,5.93
2022-10-23T09:06:34.452Z,5.78
2022-10-23T09:09:25.629Z,5.60
2022-10-23T09:12:15.209Z,5.05
2022-10-23T09:15:25.758Z,5.60
2022-10-23T09:17:59.866Z,5.80
2022-10-23T09:20:31.565Z,5.75
2022-10-23T09:23:01.861Z,5.97
2022-10-23T09:25:33.834Z,5.53
2022-10-23T09:28:05.236Z,5.40
2022-10-23T09:30:42.339Z,5.78
2022-10-23T09:33:21.812Z,5.90
2022-10-23T09:35:58.669Z,5.40
2022-10-23T09:41:19.249Z,5.60
2022-10-23T09:43:46.366Z,4.63
2022-10-23T09:48:42.380Z,5.30
2022-10-23T09:51:21.886Z,4.65
2022-10-23T09:53:53.013Z,4.22
2022-10-23T09:56:28.330Z,3.83
2022-10-23T09:59:02.348Z,4.20
2022-10-23T10:01:36.301Z,3.90
2022-10-23T10:04:03.220Z,3.92
2022-10-23T10:06:33.804Z,4.45
2022-10-23T10:09:05.715Z,4.10
2022-10-23T10:11:43.463Z,4.47
2022-10-23T10:14:45.000Z,4.03
2022-10-23T10:17:17.586Z,4.63
2022-10-23T10:20:03.856Z,4.68
2022-10-23T10:23:03.707Z,4.18
2022-10-23T10:25:52.143Z,4.07
2022-10-23T10:28:18.868Z,3.83
2022-10-23T10:31:03.899Z,3.60
2022-10-23T10:33:45.578Z,3.88
2022-10-23T10:36:40.050Z,3.85
2022-10-23T10:39:21.644Z,4.70
2022-10-23T10:41:57.160Z,3.67
2022-10-23T10:44:26.671Z,4.40
2022-10-23T10:47:15.939Z,4.07
2022-10-23T10:50:03.092Z,3.70
2022-10-23T10:52:36.941Z,3.63
2022-10-23T10:55:18.369Z,4.03
2022-10-23T10:57:54.949Z,3.85
2022-10-23T11:00:23.939Z,3.50
2022-10-23T11:05:33.597Z,4.00
2022-10-23T11:08:07.274Z,3.78
2022-10-23T11:10:36.233Z,3.50
2022-10-23T11:13:04.356Z,3.67
2022-10-23T11:15:40.823Z,3.90
2022-10-23T11:18:19.447Z,3.58
2022-10-23T11:21:30.604Z,4.28
2022-10-23T11:24:24.523Z,4.15
2022-10-23T11:27:02.919Z,4.10
2022-10-23T11:29:44.496Z,4.07
2022-10-23T11:32:29.285Z,4.00
2022-10-23T11:34:55.823Z,4.00
2022-10-23T11:37:24.626Z,3.72
2022-10-23T11:40:06.392Z,3.45
2022-10-23T11:42:46.892Z,3.28
2022-10-23T11:45:28.640Z,4.10
2022-10-23T11:47:59.875Z,4.25
2022-10-23T11:50:29.763Z,3.85
2022-10-23T11:53:14.651Z,4.03
2022-10-23T11:56:03.044Z,3.67
2022-10-23T11:58:57.379Z,3.53
2022-10-23T12:01:45.582Z,3.28
2022-10-23T12:04:15.417Z,3.55
2022-10-23T12:06:46.522Z,3.40
2022-10-23T12:09:46.627Z,3.53
2022-10-23T12:12:16.639Z,3.78
2022-10-23T12:14:51.267Z,3.28
2022-10-23T12:17:23.754Z,2.90
2022-10-23T12:19:55.394Z,3.20
2022-10-23T12:22:27.913Z,3.60
2022-10-23T12:25:11.553Z,3.30
2022-10-23T12:27:52.814Z,3.28
2022-10-23T12:30:21.386Z,3.58
2022-10-23T12:33:03.254Z,3.55
2022-10-23T12:35:48.975Z,3.22
2022-10-23T12:38:20.249Z,3.28
2022-10-23T12:40:52.564Z,3.72
2022-10-23T12:43:32.423Z,3.35
2022-10-23T12:46:17.733Z,3.38
2022-10-23T12:48:53.516Z,3.40
2022-10-23T12:51:24.193Z,3.15
2022-10-23T12:53:51.374Z,3.55
2022-10-23T12:56:18.650Z,3.50
2022-10-23T12:58:50.409Z,3.65
2022-10-23T13:01:43.925Z,3.30
2022-10-23T13:04:10.820Z,3.47
2022-10-23T13:06:39.619Z,3.30
2022-10-23T13:09:15.226Z,3.67
2022-10-23T13:11:42.575Z,3.88
2022-10-23T13:14:30.002Z,3.75
2022-10-23T13:17:06.547Z,3.70
2022-10-23T13:19:33.820Z,3.15
2022-10-23T13:22:02.873Z,3.72
2022-10-23T13:24:31.143Z,3.30
2022-10-23T13:26:59.021Z,3.50
2022-10-23T13:31:57.632Z,3.15
2022-10-23T13:34:26.844Z,2.13
2022-10-23T13:36:56.068Z,2.33
2022-10-23T13:39:33.865Z,1.95
2022-10-23T13:42:10.567Z,1.90
2022-10-23T13:44:38.020Z,2.10
2022-10-23T13:47:05.390Z,1.73
2022-10-23T13:49:32.110Z,1.92
2022-10-23T13:52:01.419Z,1.70
2022-10-23T13:54:29.152Z,2.10
2022-10-23T13:56:56.864Z,1.90
2022-10-23T13:59:24.005Z,2.17
2022-10-23T14:04:18.862Z,4.03
2022-10-23T14:06:45.816Z,1.83
2022-10-23T14:09:17.768Z,1.73
2022-10-23T14:11:44.965Z,2.20
2022-10-23T14:16:37.906Z,1.90
2022-10-23T14:19:04.522Z,1.88
2022-10-23T14:21:31.110Z,1.50
2022-10-23T14:23:57.740Z,1.95
2022-10-23T14:26:27.592Z,2.10
2022-10-23T14:28:56.052Z,2.38
2022-10-23T14:31:23.832Z,2.28
2022-10-23T14:33:56.048Z,2.60
2022-10-23T14:36:23.144Z,2.40
2022-10-23T14:41:22.238Z,11.95
2022-10-23T14:43:48.745Z,5.30
2022-10-23T14:46:17.606Z,3.45
2022-10-23T14:48:46.252Z,9.60
2022-10-23T14:51:18.089Z,11.43
2022-10-23T14:53:45.427Z,11.50
2022-10-23T14:56:12.141Z,11.88
2022-10-23T14:58:38.760Z,12.52
2022-10-23T15:01:05.503Z,12.35
2022-10-23T15:03:32.163Z,13.07
2022-10-23T15:05:58.778Z,14.25
2022-10-23T15:08:25.520Z,16.17
2022-10-23T15:10:52.059Z,16.23
2022-10-23T15:13:18.673Z,14.48
2022-10-23T15:15:45.376Z,8.77
2022-10-23T15:18:11.957Z,8.23
2022-10-23T15:20:38.547Z,15.23
2022-10-23T15:23:05.079Z,12.90
2022-10-23T15:25:31.644Z,9.13
2022-10-23T15:27:58.155Z,6.80
2022-10-23T15:30:24.717Z,5.93
2022-10-23T15:32:51.309Z,5.65
2022-10-23T15:35:17.900Z,4.07
2022-10-23T15:37:44.772Z,3.80
2022-10-23T15:40:11.929Z,2.72
2022-10-23T15:42:38.478Z,3.17
2022-10-23T15:45:05.484Z,3.25
2022-10-23T15:47:32.015Z,3.63
2022-10-23T15:49:58.568Z,2.88
2022-10-23T15:52:25.116Z,2.92
2022-10-23T15:54:51.646Z,2.53
2022-10-23T15:57:18.208Z,2.20
2022-10-23T15:59:44.734Z,1.85
2022-10-23T16:02:11.949Z,2.10
2022-10-23T16:07:05.039Z,2.17
2022-10-23T16:09:32.948Z,1.98
2022-10-23T16:11:59.590Z,1.83
2022-10-23T16:14:26.094Z,1.77
2022-10-23T16:16:52.721Z,2.03
2022-10-23T16:19:19.496Z,5.50
2022-10-23T16:21:46.086Z,5.05
2022-10-23T16:24:12.721Z,6.43
2022-10-23T16:26:39.704Z,4.20
2022-10-23T16:29:08.184Z,2.35
2022-10-23T16:31:35.682Z,1.90
2022-10-23T16:34:16.604Z,1.85
2022-10-23T16:36:43.282Z,2.85
2022-10-23T16:39:50.655Z,2.17
2022-10-23T16:47:11.081Z,1.73
2022-10-23T16:49:37.606Z,4.13
2022-10-23T16:52:04.260Z,2.23
2022-10-23T16:54:30.831Z,1.90
2022-10-23T16:56:58.631Z,1.90
2022-10-23T16:59:25.198Z,1.85
2022-10-23T17:01:51.952Z,1.93
2022-10-23T17:04:18.685Z,1.60
2022-10-23T17:06:45.504Z,1.73
2022-10-23T17:09:12.221Z,2.17
2022-10-23T17:11:40.507Z,2.70
2022-10-23T17:14:12.017Z,2.03
2022-10-23T17:16:48.212Z,1.80
2022-10-23T17:19:33.005Z,2.00
2022-10-23T17:22:03.497Z,1.73
2022-10-23T17:26:57.021Z,1.70
2022-10-23T17:29:23.630Z,1.90
2022-10-23T17:31:51.406Z,2.00
2022-10-23T17:34:21.578Z,1.60
2022-10-23T17:36:52.188Z,2.85
2022-10-23T17:39:22.253Z,1.83
2022-10-23T17:41:49.654Z,1.88
2022-10-23T17:46:43.159Z,1.90
2022-10-23T17:49:10.792Z,2.13
2022-10-23T17:51:37.649Z,1.73
2022-10-23T17:54:07.194Z,1.80
2022-10-23T17:56:36.538Z,1.83
2022-10-23T17:59:09.782Z,1.90
2022-10-23T18:01:36.709Z,2.00
2022-10-23T18:04:05.585Z,2.10
2022-10-23T18:06:35.657Z,2.15
2022-10-23T18:09:04.638Z,2.10
2022-10-23T18:11:34.583Z,2.15
2022-10-23T18:14:01.692Z,1.88
2022-10-23T18:16:28.615Z,2.10
2022-10-23T18:18:55.670Z,2.20
2022-10-23T18:21:24.016Z,1.88
2022-10-23T18:23:51.447Z,2.13
2022-10-23T18:28:48.336Z,3.08
2022-10-23T18:31:16.571Z,5.75
2022-10-23T18:33:43.327Z,2.17
2022-10-23T18:36:22.609Z,1.92
2022-10-23T18:38:50.309Z,2.20
2022-10-23T18:41:18.026Z,2.20
2022-10-23T18:43:44.901Z,2.00
2022-10-23T18:46:15.260Z,2.08
2022-10-23T18:48:42.710Z,2.10
2022-10-23T18:53:49.170Z,1.90
2022-10-23T18:56:22.052Z,1.90
2022-10-23T18:58:53.704Z,1.70
2022-10-23T19:01:21.073Z,3.92
2022-10-23T19:06:15.162Z,2.10
2022-10-23T19:08:43.558Z,2.33
2022-10-23T19:11:11.826Z,2.17
2022-10-23T19:13:39.603Z,2.60
2022-10-23T19:16:22.348Z,2.17
2022-10-23T19:19:15.099Z,1.77
2022-10-23T19:21:42.499Z,1.92
2022-10-23T19:26:40.447Z,1.95
2022-10-23T19:29:09.895Z,2.00
2022-10-23T19:31:36.603Z,2.28
2022-10-23T19:34:03.648Z,4.55
2022-10-23T19:36:31.824Z,6.03
2022-10-23T19:38:58.436Z,2.92
2022-10-23T19:41:25.027Z,2.43
2022-10-23T19:43:51.551Z,2.37
2022-10-23T19:46:18.112Z,2.10
2022-10-23T19:48:46.415Z,2.20
2022-10-23T19:51:13.558Z,2.10
2022-10-23T19:53:41.964Z,2.13
2022-10-23T19:56:10.883Z,2.13
2022-10-23T19:58:38.009Z,1.83
2022-10-23T20:01:13.840Z,2.20
2022-10-23T20:03:41.792Z,1.98
2022-10-23T20:06:13.519Z,2.20
2022-10-23T20:08:41.286Z,2.28
2022-10-23T20:11:09.326Z,2.20
2022-10-23T20:13:36.199Z,2.00
2022-10-23T20:16:02.705Z,3.50
2022-10-23T20:18:29.359Z,4.20
2022-10-23T20:20:55.925Z,3.15
2022-10-23T20:23:22.849Z,2.43
2022-10-23T20:25:49.393Z,2.42
2022-10-23T20:28:16.048Z,2.47
2022-10-23T20:30:42.675Z,2.38
2022-10-23T20:33:09.405Z,2.28
2022-10-23T20:35:42.595Z,2.20
2022-10-23T20:38:09.649Z,1.95
2022-10-23T20:40:36.216Z,2.00
2022-10-23T20:43:03.345Z,2.17
2022-10-23T20:45:29.912Z,2.78
2022-10-23T20:47:56.818Z,2.40
2022-10-23T20:50:23.928Z,2.50
2022-10-23T20:52:50.899Z,2.33
2022-10-23T20:55:18.108Z,2.30
2022-10-23T20:57:44.933Z,2.13
2022-10-23T21:00:12.317Z,2.58
2022-10-23T21:02:38.901Z,2.70
2022-10-23T21:05:05.992Z,2.42
2022-10-23T21:07:32.527Z,2.72
2022-10-23T21:09:59.399Z,2.90
2022-10-23T21:12:25.900Z,2.60
2022-10-23T21:14:53.579Z,2.40
2022-10-23T21:17:20.420Z,2.80
2022-10-23T21:19:47.129Z,2.60
2022-10-23T21:22:13.706Z,2.30
2022-10-23T21:24:40.249Z,2.80
2022-10-23T21:27:06.843Z,2.70
2022-10-23T21:29:33.392Z,2.80
2022-10-23T21:32:01.650Z,3.13
2022-10-23T21:34:29.342Z,2.67
2022-10-23T21:39:46.333Z,2.90
2022-10-23T21:42:14.124Z,2.47
2022-10-23T21:44:40.942Z,2.78
2022-10-23T21:47:07.479Z,2.60
2022-10-23T21:49:34.056Z,2.57
2022-10-23T21:52:00.548Z,2.83
2022-10-23T21:54:27.147Z,2.78
2022-10-23T21:56:54.021Z,2.80
2022-10-23T21:59:24.318Z,3.08
2022-10-23T22:01:52.060Z,2.70
2022-10-23T22:04:19.781Z,2.85
2022-10-23T22:06:48.754Z,2.42
2022-10-23T22:09:19.196Z,2.60
2022-10-23T22:11:45.943Z,2.50
2022-10-23T22:14:12.509Z,2.40
2022-10-23T22:16:39.050Z,2.77
2022-10-23T22:19:05.644Z,2.70
2022-10-23T22:21:32.198Z,2.70
2022-10-23T22:24:00.334Z,2.90
2022-10-23T22:26:28.891Z,2.75
2022-10-23T22:28:58.288Z,2.70
2022-10-23T22:31:27.899Z,2.95
2022-10-23T22:33:55.560Z,2.65
2022-10-23T22:36:22.062Z,2.33
2022-10-23T22:38:48.738Z,2.60
2022-10-23T22:41:16.008Z,2.90
2022-10-23T22:43:42.657Z,2.53
2022-10-23T22:46:15.337Z,3.22
2022-10-23T22:48:42.478Z,2.85
2022-10-23T22:51:12.125Z,2.85
2022-10-23T22:53:38.725Z,2.80
2022-10-23T22:56:10.052Z,2.63
2022-10-23T22:58:37.116Z,2.63
2022-10-23T23:01:12.141Z,2.78
2022-10-23T23:03:38.951Z,2.65
2022-10-23T23:06:06.822Z,2.70
2022-10-23T23:08:34.923Z,3.13
2022-10-23T23:11:01.570Z,2.80
2022-10-23T23:13:28.211Z,3.03
2022-10-23T23:15:55.169Z,2.83
2022-10-23T23:18:22.351Z,3.22
2022-10-23T23:20:49.155Z,2.60
2022-10-23T23:23:15.776Z,3.22
2022-10-23T23:25:48.463Z,3.55
2022-10-23T23:28:16.883Z,2.70
2022-10-23T23:30:43.522Z,2.88
2022-10-23T23:33:11.776Z,3.00
2022-10-23T23:35:46.115Z,2.60
2022-10-23T23:38:13.234Z,2.83
2022-10-23T23:40:40.496Z,3.03
2022-10-23T23:43:07.076Z,2.80
2022-10-23T23:45:33.596Z,2.67
2022-10-23T23:48:00.163Z,2.80
2022-10-23T23:50:28.003Z,3.10
2022-10-23T23:52:54.523Z,3.13
2022-10-23T23:55:21.048Z,2.73
2022-10-23T23:57:47.984Z,3.17
